createdAt,value
2022-10-24T00:02:06.541Z,20.7
2022-10-24T00:07:08.071Z,20.8
2022-10-24T00:12:09.738Z,20.8
2022-10-24T00:17:11.391Z,20.8
2022-10-24T00:22:12.908Z,20.8
2022-10-24T00:27:14.442Z,20.9
2022-10-24T00:32:16.214Z,20.9
2022-10-24T00:37:17.795Z,20.9
2022-10-24T00:42:19.485Z,20.9
2022-10-24T00:47:20.982Z,21
2022-10-24T00:52:22.484Z,21
2022-10-24T00:57:24.007Z,21.1
2022-10-24T01:02:25.491Z,21.1
2022-10-24T01:07:26.967Z,21.1
2022-10-24T01:12:28.471Z,21.1
2022-10-24T01:17:29.917Z,21.2
2022-10-24T01:22:31.421Z,21.2
2022-10-24T01:27:32.915Z,21.2
2022-10-24T01:32:34.413Z,21.2
2022-10-24T01:37:35.913Z,21.3
2022-10-24T01:42:37.476Z,21.3
2022-10-24T01:47:38.925Z,21.4
2022-10-24T01:52:40.430Z,21.4
2022-10-24T01:57:41.970Z,21.4
2022-10-24T02:02:43.616Z,21.4
2022-10-24T02:07:45.307Z,21.4
2022-10-24T02:12:47.195Z,21.5
2022-10-24T02:17:48.965Z,21.5
2022-10-24T02:22:50.469Z,21.6
2022-10-24T02:27:52.057Z,21.6
2022-10-24T02:32:53.607Z,21.6
2022-10-24T02:37:55.113Z,21.6
2022-10-24T02:42:56.684Z,21.6
2022-10-24T02:47:58.148Z,21.7
2022-10-24T02:52:59.621Z,21.7
2022-10-24T02:58:01.134Z,21.7
2022-10-24T03:03:02.639Z,21.8
2022-10-24T03:08:04.153Z,21.8
2022-10-24T03:13:05.688Z,21.8
2022-10-24T03:18:07.195Z,21.8
2022-10-24T03:23:08.686Z,21.8
2022-10-24T03:28:10.441Z,21.9
2022-10-24T03:33:11.966Z,21.9
2022-10-24T03:38:13.546Z,21.9
2022-10-24T03:43:15.103Z,21.9
2022-10-24T03:48:16.614Z,22
2022-10-24T03:53:18.118Z,22
2022-10-24T03:58:19.689Z,22
2022-10-24T04:03:21.204Z,22.1
2022-10-24T04:08:22.718Z,22.1
2022-10-24T04:13:24.265Z,22.1
2022-10-24T04:18:25.798Z,22.1
2022-10-24T04:23:27.315Z,22.1
2022-10-24T04:28:28.883Z,22.1
2022-10-24T04:33:30.402Z,22.2
2022-10-24T04:38:33.405Z,22.2
2022-10-24T04:43:35.179Z,22.2
2022-10-24T04:48:36.724Z,22.2
2022-10-24T04:53:37.526Z,22.2
2022-10-24T04:58:39.090Z,22.2
2022-10-24T05:03:40.654Z,22.3
2022-10-24T05:08:42.203Z,22.3
2022-10-24T05:13:43.780Z,22.3
2022-10-24T05:18:44.514Z,22.4
2022-10-24T05:23:46.060Z,22.4
2022-10-24T05:28:50.122Z,22.4
2022-10-24T05:33:54.126Z,22.4
2022-10-24T05:38:55.923Z,22.4
2022-10-24T05:43:57.510Z,22.4
2022-10-24T05:48:59.096Z,22.4
2022-10-24T05:54:00.705Z,22.5
2022-10-24T05:59:02.345Z,22.5
2022-10-24T06:04:03.925Z,22.5
2022-10-24T06:09:05.513Z,22.6
2022-10-24T06:14:07.123Z,22.6
2022-10-24T06:19:08.711Z,22.6
2022-10-24T06:24:10.494Z,22.6
2022-10-24T06:29:12.115Z,22.6
2022-10-24T06:34:13.678Z,22.6
2022-10-24T06:39:15.288Z,22.6
2022-10-24T06:44:16.871Z,22.6
2022-10-24T06:49:18.665Z,22.7
2022-10-24T06:54:20.260Z,22.7
2022-10-24T06:59:21.874Z,22.7
2022-10-24T07:04:23.484Z,22.7
2022-10-24T07:09:25.095Z,22.8
2022-10-24T07:14:26.741Z,22.8
2022-10-24T07:19:28.345Z,22.8
2022-10-24T07:24:29.923Z,22.8
2022-10-24T07:29:31.523Z,22.8
2022-10-24T07:34:33.090Z,22.8
2022-10-24T07:39:34.650Z,22.8
2022-10-24T07:44:36.258Z,22.8
2022-10-24T07:49:37.861Z,22.9
2022-10-24T07:54:39.448Z,22.9
2022-10-24T07:59:42.390Z,22.9
2022-10-24T08:04:44.303Z,22.9
2022-10-24T08:09:45.912Z,22.9
2022-10-24T08:14:47.509Z,22.9
2022-10-24T08:19:49.084Z,22.9
2022-10-24T08:24:50.651Z,23
2022-10-24T08:29:52.258Z,23
2022-10-24T08:34:53.829Z,23
2022-10-24T08:39:55.438Z,23
2022-10-24T08:44:57.050Z,23
2022-10-24T08:49:58.675Z,23
2022-10-24T08:55:03.285Z,23.1
2022-10-24T09:00:07.947Z,23.1
2022-10-24T09:05:09.527Z,23.1
2022-10-24T09:10:11.101Z,23.1
2022-10-24T09:15:12.929Z,23.1
2022-10-24T09:20:14.711Z,23.1
2022-10-24T09:25:16.290Z,23.1
2022-10-24T09:30:17.963Z,23.1
2022-10-24T09:35:19.656Z,23.2
2022-10-24T09:40:21.226Z,23.2
2022-10-24T09:45:22.848Z,23.2
2022-10-24T09:50:24.669Z,23.2
2022-10-24T09:55:26.235Z,23.2
2022-10-24T10:00:28.089Z,23.2
2022-10-24T10:05:29.641Z,23.3
2022-10-24T10:10:31.236Z,23.3
2022-10-24T10:15:32.851Z,23.3
2022-10-24T10:20:34.444Z,23.3
2022-10-24T10:25:36.038Z,23.3
2022-10-24T10:30:37.651Z,23.3
2022-10-24T10:35:39.227Z,23.3
2022-10-24T10:40:40.765Z,23.3
2022-10-24T10:45:42.327Z,23.3
2022-10-24T10:50:43.872Z,23.3
2022-10-24T10:55:45.420Z,23.4
2022-10-24T11:00:47.222Z,23.4
2022-10-24T11:05:48.784Z,23.4
2022-10-24T11:10:50.576Z,23.4
2022-10-24T11:15:52.152Z,23.4
2022-10-24T11:20:53.725Z,23.4
2022-10-24T11:25:55.287Z,23.4
2022-10-24T11:30:57.107Z,23.4
2022-10-24T11:35:58.897Z,23.4
2022-10-24T11:41:00.450Z,23.4
2022-10-24T11:46:02.940Z,23.4
2022-10-24T11:51:04.513Z,23.4
2022-10-24T11:56:06.070Z,23.5
2022-10-24T12:01:07.681Z,23.5
2022-10-24T12:06:09.312Z,23.5
2022-10-24T12:11:10.900Z,23.5
2022-10-24T12:16:12.504Z,23.4
2022-10-24T12:21:14.093Z,23.4
2022-10-24T12:26:15.911Z,23.4
2022-10-24T12:31:18.845Z,23.4
2022-10-24T12:36:21.225Z,23.4
2022-10-24T12:41:22.833Z,23.4
2022-10-24T12:46:24.441Z,23.4
2022-10-24T12:56:31.673Z,23.5
2022-10-24T13:01:33.503Z,23.5
2022-10-24T13:06:35.337Z,23.5
2022-10-24T13:11:36.903Z,23.5
2022-10-24T13:16:38.528Z,23.5
2022-10-24T13:21:41.052Z,23.5
2022-10-24T13:26:44.684Z,23.5
2022-10-24T13:31:46.292Z,23.5
2022-10-24T13:36:47.878Z,23.5
2022-10-24T13:41:49.469Z,23.6
2022-10-24T13:46:53.271Z,23.6
2022-10-24T13:51:56.254Z,23.6
2022-10-24T13:56:58.517Z,23.6
2022-10-24T14:02:02.974Z,23.6
2022-10-24T14:07:04.582Z,23.6
2022-10-24T14:12:06.167Z,23.6
2022-10-24T14:17:07.781Z,23.6
2022-10-24T14:22:09.377Z,23.6
2022-10-24T14:27:10.951Z,23.6
2022-10-24T14:32:12.768Z,23.6
2022-10-24T14:37:14.342Z,23.6
2022-10-24T14:42:15.942Z,23.6
2022-10-24T14:47:16.985Z,23.6
2022-10-24T14:52:18.600Z,23.6
2022-10-24T14:57:19.381Z,23.6
2022-10-24T15:02:21.003Z,23.6
2022-10-24T15:07:22.597Z,23.6
2022-10-24T15:12:24.194Z,23.6
2022-10-24T15:17:27.058Z,23.6
2022-10-24T15:22:31.575Z,23.6
2022-10-24T15:27:33.171Z,23.6
2022-10-24T15:32:34.822Z,23.6
2022-10-24T15:37:36.411Z,23.6
2022-10-24T15:42:38.466Z,23.6
2022-10-24T15:47:40.077Z,23.6
2022-10-24T15:52:41.665Z,23.6
2022-10-24T15:57:43.244Z,23.6
2022-10-24T16:02:45.213Z,23.6
2022-10-24T16:07:47.313Z,23.6
2022-10-24T16:12:49.119Z,23.6
2022-10-24T16:17:50.727Z,23.7
2022-10-24T16:22:52.311Z,23.7
2022-10-24T16:27:53.889Z,23.7
2022-10-24T16:32:55.488Z,23.7
2022-10-24T16:37:57.079Z,23.7
2022-10-24T16:42:58.779Z,23.8
2022-10-24T16:48:00.488Z,28.2
2022-10-24T16:53:02.261Z,31.4
2022-10-24T16:58:02.459Z,34.1
2022-10-24T17:03:02.975Z,36.7
2022-10-24T17:08:03.327Z,39.6
2022-10-24T17:13:04.613Z,42.4
2022-10-24T17:18:05.153Z,45.3
2022-10-24T17:23:06.498Z,48.1
2022-10-24T17:28:07.664Z,49.4
2022-10-24T17:33:08.429Z,50.3
2022-10-24T17:38:09.218Z,51.2
2022-10-24T17:43:10.828Z,51.1
2022-10-24T17:53:17.423Z,51
2022-10-24T17:58:19.031Z,51
2022-10-24T18:03:19.812Z,50.9
2022-10-24T18:08:20.593Z,50.9
2022-10-24T18:13:21.365Z,50.9
2022-10-24T18:18:22.144Z,50.8
2022-10-24T18:23:22.916Z,50.8
2022-10-24T18:28:23.702Z,50.8
2022-10-24T18:33:24.719Z,50.7
2022-10-24T18:38:25.473Z,50.6
2022-10-24T18:43:26.299Z,50.6
2022-10-24T18:48:27.289Z,50.6
2022-10-24T18:53:28.048Z,50.6
2022-10-24T18:58:28.797Z,50.5
2022-10-24T19:03:29.601Z,50.4
2022-10-24T19:08:30.423Z,50.4
2022-10-24T19:13:31.176Z,50.4
2022-10-24T19:18:32.205Z,50.3
2022-10-24T19:23:32.958Z,50.2
2022-10-24T19:28:33.689Z,50.1
2022-10-24T19:33:34.435Z,50.1
2022-10-24T19:38:35.197Z,50.1
2022-10-24T19:43:35.933Z,50
2022-10-24T19:48:36.700Z,49.9
2022-10-24T19:53:37.449Z,49.8
2022-10-24T19:58:38.254Z,49.7
2022-10-24T20:03:38.956Z,49.7
2022-10-24T20:08:39.652Z,49.6
2022-10-24T20:13:40.361Z,49.6
2022-10-24T20:23:42.027Z,49.4
2022-10-24T20:28:42.736Z,49.4
2022-10-24T20:33:43.423Z,49.3
2022-10-24T20:38:44.106Z,49.3
2022-10-24T20:43:44.821Z,49.2
2022-10-24T20:48:45.610Z,49.2
2022-10-24T20:53:46.286Z,49.1
2022-10-24T20:58:46.959Z,49.1
2022-10-24T21:03:47.666Z,49
2022-10-24T21:08:48.685Z,48.9
2022-10-24T21:13:49.443Z,48.9
2022-10-24T21:18:50.156Z,48.8
2022-10-24T21:23:50.839Z,48.7
2022-10-24T21:28:53.901Z,48.7
2022-10-24T21:34:00.012Z,48.7
2022-10-24T21:39:00.918Z,48.6
2022-10-24T21:44:01.625Z,48.6
2022-10-24T21:49:02.305Z,48.5
2022-10-24T21:54:02.994Z,48.4
2022-10-24T22:04:04.330Z,48.3
2022-10-24T22:09:05.013Z,48.3
2022-10-24T22:14:05.655Z,48.2
2022-10-24T22:19:06.319Z,48.1
2022-10-24T22:29:07.651Z,48
2022-10-24T22:34:08.306Z,47.9
2022-10-24T22:39:08.970Z,47.9
2022-10-24T22:44:09.577Z,47.8
2022-10-24T22:54:10.775Z,47.7
2022-10-24T22:59:11.393Z,47.6
2022-10-24T23:04:11.986Z,47.6
2022-10-24T23:09:12.572Z,47.5
2022-10-24T23:14:13.208Z,47.4
2022-10-24T23:19:13.873Z,47.4
2022-10-24T23:24:14.455Z,47.3
2022-10-24T23:29:15.041Z,47.3
2022-10-24T23:34:15.636Z,47.2
2022-10-24T23:39:16.302Z,47.2
2022-10-24T23:44:16.921Z,47.1
2022-10-24T23:49:20.639Z,47.1
2022-10-24T23:54:21.241Z,47
2022-10-24T23:59:21.857Z,46.9
